Time;durP1;ratioP1;P1;durP2;ratioP2;P2;SDS_P1;SDS_P2;PMS_P1;PMS_P2;Temp;Humidity;BMP_temperature;BMP_pressure;BME280_temperature;BME280_humidity;BME280_pressure;Samples;Min_cycle;Max_cycle;Signal;HPM_P1;HPM_P2
2022/06/04 04:00:56;;;;;;;10.52;9.52;;;12.20;99.90;;;;;;5663677;23;20273;-68
2022/06/04 04:03:23;;;;;;;13.55;9.82;;;12.20;99.90;;;;;;4959766;28;20212;-67
2022/06/04 04:05:52;;;;;;;10.10;9.13;;;12.20;99.90;;;;;;4976780;28;20213;-67
2022/06/04 04:08:23;;;;;;;10.52;9.43;;;12.30;99.90;;;;;;4957295;28;20213;-68
2022/06/04 04:10:50;;;;;;;11.52;10.15;;;12.30;99.90;;;;;;4964972;28;20226;-68
2022/06/04 04:13:18;;;;;;;10.77;9.68;;;12.40;99.90;;;;;;4961485;28;20219;-68
2022/06/04 04:15:45;;;;;;;11.30;10.20;;;12.40;99.90;;;;;;4950851;29;20232;-68
2022/06/04 04:18:14;;;;;;;10.52;9.55;;;12.40;99.90;;;;;;4962502;28;20267;-68
2022/06/04 04:20:44;;;;;;;10.90;9.90;;;12.50;99.90;;;;;;4950064;29;20237;-67
2022/06/04 04:23:11;;;;;;;9.90;9.10;;;12.70;99.90;;;;;;4962151;28;20212;-67
2022/06/04 04:25:38;;;;;;;10.67;9.50;;;13.30;99.90;;;;;;4951799;28;20465;-69
2022/06/04 04:28:06;;;;;;;9.17;8.47;;;13.90;99.90;;;;;;4966731;28;20474;-67
2022/06/04 04:30:34;;;;;;;8.73;7.87;;;14.50;99.90;;;;;;4948692;28;20489;-68
2022/06/04 04:33:01;;;;;;;8.33;7.53;;;14.80;99.90;;;;;;4962678;28;20468;-67
2022/06/04 04:35:31;;;;;;;9.10;7.97;;;15.10;99.90;;;;;;4949984;28;20907;-68
2022/06/04 04:37:58;;;;;;;8.67;8.10;;;15.40;99.90;;;;;;4960212;28;20463;-68
2022/06/04 04:40:27;;;;;;;8.73;7.93;;;15.70;99.90;;;;;;4951775;28;20473;-68
2022/06/04 04:42:54;;;;;;;9.37;8.40;;;16.10;99.90;;;;;;4945687;28;20469;-68
2022/06/04 04:45:22;;;;;;;8.30;7.73;;;16.40;99.90;;;;;;4946180;28;20575;-67
2022/06/04 04:47:49;;;;;;;8.90;8.20;;;16.70;99.90;;;;;;4949899;28;20548;-68
2022/06/04 04:50:19;;;;;;;9.07;8.20;;;17.00;99.90;;;;;;4958043;28;20471;-68
2022/06/04 04:52:47;;;;;;;8.70;8.00;;;17.30;99.90;;;;;;4957790;28;20483;-67
2022/06/04 04:55:14;;;;;;;8.50;7.80;;;17.50;99.90;;;;;;4945276;28;20485;-68
2022/06/04 04:57:40;;;;;;;8.47;7.87;;;17.90;99.90;;;;;;4959597;28;20476;-67
2022/06/04 05:00:09;;;;;;;10.03;9.10;;;18.10;99.90;;;;;;4956290;28;20493;-67
2022/06/04 05:02:37;;;;;;;9.10;8.30;;;17.80;99.90;;;;;;4960814;28;20468;-69
2022/06/04 05:05:04;;;;;;;9.00;8.30;;;18.00;99.90;;;;;;4956483;28;20460;-67
2022/06/04 05:07:31;;;;;;;8.63;7.90;;;18.10;99.90;;;;;;4945827;28;20839;-67
2022/06/04 05:09:59;;;;;;;8.63;7.83;;;18.20;99.90;;;;;;4940293;28;20469;-68
2022/06/04 05:12:26;;;;;;;8.93;8.03;;;18.60;99.90;;;;;;4948546;29;21180;-68
2022/06/04 05:14:53;;;;;;;9.67;8.33;;;18.80;99.90;;;;;;4956275;28;20492;-68
2022/06/04 05:17:19;;;;;;;10.17;9.20;;;19.10;99.90;;;;;;4961639;28;20842;-68
2022/06/04 05:19:46;;;;;;;9.00;8.17;;;18.80;99.90;;;;;;4954566;28;20482;-68
2022/06/04 05:22:13;;;;;;;10.63;9.63;;;18.70;99.90;;;;;;4950056;28;20493;-68
2022/06/04 05:24:40;;;;;;;9.33;8.30;;;18.90;99.90;;;;;;4952891;28;20464;-67
2022/06/04 05:27:08;;;;;;;8.80;8.13;;;18.90;99.90;;;;;;4958651;28;20479;-66
2022/06/04 05:29:37;;;;;;;9.57;8.67;;;19.20;99.90;;;;;;4961111;28;20783;-68
2022/06/04 05:32:05;;;;;;;10.23;9.33;;;18.90;99.90;;;;;;4952861;28;20490;-66
2022/06/04 05:34:32;;;;;;;9.87;8.90;;;18.90;99.90;;;;;;4958038;28;20555;-66
2022/06/04 05:37:00;;;;;;;9.50;8.67;;;18.70;99.90;;;;;;4956637;28;20474;-67
2022/06/04 05:39:29;;;;;;;12.90;9.73;;;18.40;99.90;;;;;;4950890;28;20551;-67
2022/06/04 05:41:56;;;;;;;10.57;9.73;;;17.90;99.90;;;;;;4957143;28;20573;-67
2022/06/04 05:44:24;;;;;;;11.60;10.60;;;17.00;99.90;;;;;;4942331;28;20470;-67
2022/06/04 05:46:51;;;;;;;11.70;10.00;;;16.50;99.90;;;;;;4949593;28;20571;-66
2022/06/04 05:49:19;;;;;;;11.00;9.20;;;16.00;99.90;;;;;;4958639;28;20460;-67
2022/06/04 05:51:46;;;;;;;10.73;9.40;;;15.60;99.90;;;;;;4941731;29;20484;-68
2022/06/04 05:54:14;;;;;;;12.90;10.20;;;15.80;99.90;;;;;;4957559;28;20547;-67
2022/06/04 05:56:43;;;;;;;12.80;9.40;;;16.10;99.90;;;;;;4948808;28;20491;-67
2022/06/04 05:59:12;;;;;;;15.70;10.87;;;16.10;99.90;;;;;;4945690;29;20821;-68
2022/06/04 06:01:42;;;;;;;10.83;9.77;;;16.20;99.90;;;;;;4948541;28;20500;-68
2022/06/04 06:04:11;;;;;;;13.47;9.90;;;16.20;99.90;;;;;;4958732;28;20469;-67
2022/06/04 06:06:41;;;;;;;12.73;10.53;;;16.40;99.90;;;;;;4951144;28;20836;-68
2022/06/04 06:09:10;;;;;;;12.90;9.50;;;16.30;99.90;;;;;;4942343;28;20468;-66
2022/06/04 06:11:38;;;;;;;12.47;10.70;;;16.30;99.90;;;;;;4943174;28;20494;-67
2022/06/04 06:14:07;;;;;;;11.33;10.23;;;16.60;99.90;;;;;;4951501;28;20476;-68
2022/06/04 06:16:35;;;;;;;14.90;10.40;;;17.00;99.90;;;;;;4941340;28;20591;-67
2022/06/04 06:19:03;;;;;;;14.57;10.27;;;17.30;99.90;;;;;;4946814;28;20476;-68
2022/06/04 06:21:33;;;;;;;10.70;9.70;;;17.30;99.90;;;;;;4952788;28;20484;-68
2022/06/04 06:24:00;;;;;;;10.37;9.37;;;17.40;99.90;;;;;;4946489;28;20464;-67
2022/06/04 06:26:29;;;;;;;11.63;10.43;;;17.00;99.90;;;;;;4952275;28;20473;-67
2022/06/04 06:28:57;;;;;;;12.27;10.97;;;16.90;99.90;;;;;;4964540;28;21030;-67
2022/06/04 06:31:26;;;;;;;11.50;10.47;;;16.90;99.90;;;;;;4957137;28;20495;-67
2022/06/04 06:33:54;;;;;;;12.60;11.30;;;17.00;99.90;;;;;;4944794;28;20627;-67
2022/06/04 06:36:23;;;;;;;11.53;10.40;;;17.00;99.90;;;;;;4943925;28;20490;-67
2022/06/04 06:38:50;;;;;;;14.80;11.43;;;17.20;99.90;;;;;;4946969;28;20476;-67
2022/06/04 06:41:20;;;;;;;10.93;9.93;;;17.10;99.90;;;;;;4958903;28;20997;-67
2022/06/04 06:43:49;;;;;;;12.47;10.23;;;17.00;99.90;;;;;;4961021;28;20467;-67
2022/06/04 06:46:18;;;;;;;14.33;10.90;;;17.10;99.90;;;;;;4964268;28;20456;-67
2022/06/04 06:48:46;;;;;;;12.33;10.63;;;17.50;99.90;;;;;;4972611;28;20468;-67
2022/06/04 06:51:20;;;;;;;11.53;10.37;;;18.00;99.90;;;;;;4939876;28;20493;-67
2022/06/04 06:53:48;;;;;;;10.40;9.40;;;18.00;99.90;;;;;;4932948;29;20477;-67
2022/06/04 06:56:17;;;;;;;10.10;9.30;;;18.20;99.90;;;;;;4933872;29;20493;-67
2022/06/04 06:58:44;;;;;;;10.43;9.47;;;18.40;99.90;;;;;;4933776;29;20462;-67
2022/06/04 07:01:12;;;;;;;11.00;9.90;;;18.50;99.90;;;;;;4933319;29;20497;-67
2022/06/04 07:03:41;;;;;;;10.10;8.60;;;18.60;99.90;;;;;;4950458;28;20465;-67
2022/06/04 07:06:10;;;;;;;10.90;9.70;;;18.50;99.90;;;;;;4945209;28;20467;-67
2022/06/04 07:08:37;;;;;;;10.10;8.80;;;18.50;99.90;;;;;;4933937;29;20457;-68
2022/06/04 07:11:06;;;;;;;9.27;8.47;;;18.40;99.90;;;;;;4957223;28;20492;-68
2022/06/04 07:13:33;;;;;;;10.87;9.77;;;18.70;99.90;;;;;;4951000;28;20745;-68
2022/06/04 07:16:00;;;;;;;12.03;10.97;;;19.00;99.90;;;;;;4942926;28;20505;-68
2022/06/04 07:18:26;;;;;;;9.97;8.67;;;19.40;99.90;;;;;;4946793;28;20470;-69
2022/06/04 07:20:55;;;;;;;7.67;6.93;;;19.40;99.90;;;;;;4947768;28;20503;-68
2022/06/04 07:23:22;;;;;;;9.40;8.50;;;19.30;99.90;;;;;;4946592;28;20544;-69
2022/06/04 07:25:50;;;;;;;9.07;8.37;;;19.20;99.90;;;;;;4953006;28;20489;-69
2022/06/04 07:28:18;;;;;;;9.40;8.70;;;19.60;99.90;;;;;;4949529;28;20500;-69
2022/06/04 07:30:44;;;;;;;10.83;8.37;;;19.70;99.90;;;;;;4959966;28;20484;-68
2022/06/04 07:33:11;;;;;;;9.23;8.53;;;19.60;99.90;;;;;;4958721;28;20487;-68
2022/06/04 07:35:38;;;;;;;9.97;9.00;;;19.30;99.90;;;;;;4963649;28;20484;-68
2022/06/04 07:38:05;;;;;;;9.03;8.33;;;19.20;99.90;;;;;;4967604;28;20494;-67
2022/06/04 07:40:31;;;;;;;9.50;8.70;;;19.20;99.90;;;;;;4961837;28;20463;-68
2022/06/04 07:42:58;;;;;;;8.73;7.93;;;19.70;99.90;;;;;;4968525;28;20468;-69
2022/06/04 07:45:26;;;;;;;9.20;8.50;;;20.20;99.90;;;;;;4958579;28;20464;-68
2022/06/04 07:47:53;;;;;;;9.33;8.50;;;20.60;99.90;;;;;;4961257;28;20484;-68
2022/06/04 07:50:20;;;;;;;10.00;9.20;;;20.50;99.90;;;;;;4939458;28;20478;-68
2022/06/04 07:52:46;;;;;;;10.07;9.17;;;21.00;99.90;;;;;;4955739;28;20484;-69
2022/06/04 07:55:13;;;;;;;8.60;7.90;;;21.30;99.90;;;;;;4949142;28;20466;-68
2022/06/04 07:57:41;;;;;;;8.10;7.40;;;21.20;99.90;;;;;;4959952;28;20490;-68
2022/06/04 08:00:08;;;;;;;9.27;8.47;;;21.10;99.90;;;;;;4954352;28;20537;-68
2022/06/04 08:02:37;;;;;;;8.77;8.07;;;21.20;99.90;;;;;;4955801;28;20501;-68
2022/06/04 08:05:04;;;;;;;8.97;7.97;;;21.70;99.90;;;;;;4959578;28;20478;-68
2022/06/04 08:07:31;;;;;;;8.20;7.70;;;21.80;99.90;;;;;;4956896;28;20468;-68
2022/06/04 08:09:57;;;;;;;9.00;8.30;;;22.00;99.90;;;;;;4957203;28;20476;-68
2022/06/04 08:12:27;;;;;;;9.20;8.60;;;21.60;99.90;;;;;;4957903;28;20494;-68
2022/06/04 08:14:54;;;;;;;9.73;9.03;;;21.80;99.90;;;;;;4962183;28;20802;-68
2022/06/04 08:17:23;;;;;;;8.47;7.60;;;21.80;99.90;;;;;;4964112;28;20492;-68
2022/06/04 08:19:51;;;;;;;9.53;8.73;;;21.90;99.90;;;;;;4961412;28;20545;-69
2022/06/04 08:22:18;;;;;;;8.23;7.60;;;21.60;99.90;;;;;;4961504;28;20488;-69
2022/06/04 08:24:47;;;;;;;7.77;7.20;;;21.60;99.90;;;;;;4955621;28;20471;-68
2022/06/04 08:27:14;;;;;;;7.73;7.23;;;22.00;99.90;;;;;;4951663;28;20936;-68
2022/06/04 08:29:41;;;;;;;8.20;7.73;;;22.40;99.90;;;;;;4947374;28;20478;-68
2022/06/04 08:32:08;;;;;;;7.97;7.47;;;22.40;99.90;;;;;;4947925;28;20492;-69
2022/06/04 08:34:35;;;;;;;8.33;7.83;;;22.20;99.90;;;;;;4950323;28;20476;-69
2022/06/04 08:37:04;;;;;;;7.80;7.07;;;22.00;99.90;;;;;;4944672;29;20506;-69
2022/06/04 08:39:31;;;;;;;8.30;7.70;;;22.10;99.90;;;;;;4941885;28;20473;-69
2022/06/04 08:42:06;;;;;;;7.83;7.23;;;22.50;99.90;;;;;;4947275;28;20491;-69
2022/06/04 08:44:36;;;;;;;7.83;7.33;;;21.90;99.90;;;;;;4951816;29;20483;-68
2022/06/04 08:47:11;;;;;;;7.40;6.90;;;22.20;99.90;;;;;;4954022;28;20478;-69
2022/06/04 08:49:42;;;;;;;8.47;7.70;;;22.40;99.90;;;;;;4946722;28;21204;-69
2022/06/04 08:52:14;;;;;;;8.70;7.97;;;22.50;99.90;;;;;;4947536;28;20499;-69
2022/06/04 08:57:33;;;;;;;6.90;6.40;;;22.20;99.90;;;;;;4945970;28;20487;-68
2022/06/04 09:00:08;;;;;;;7.07;6.63;;;22.00;99.90;;;;;;4952673;28;20473;-68
2022/06/04 09:02:50;;;;;;;6.20;5.90;;;21.80;99.90;;;;;;4959339;28;20576;-68
2022/06/04 09:05:23;;;;;;;6.67;6.27;;;21.50;99.90;;;;;;4962429;28;20468;-68
2022/06/04 09:07:56;;;;;;;6.63;6.23;;;21.10;99.90;;;;;;4935887;29;20484;-68
2022/06/04 09:10:26;;;;;;;8.40;7.60;;;20.80;99.90;;;;;;4947683;28;20484;-68
2022/06/04 09:12:57;;;;;;;6.87;6.47;;;20.60;99.90;;;;;;4940921;28;20476;-68
2022/06/04 09:15:29;;;;;;;6.60;6.10;;;20.40;99.90;;;;;;4945608;28;20469;-67
2022/06/04 09:17:58;;;;;;;7.73;6.97;;;20.50;99.90;;;;;;4957189;28;20468;-68
2022/06/04 09:20:34;;;;;;;8.67;8.00;;;20.10;99.90;;;;;;4949194;28;20469;-68
2022/06/04 09:23:06;;;;;;;7.40;6.80;;;20.30;99.90;;;;;;4973757;28;20459;-68
2022/06/04 09:25:45;;;;;;;8.13;7.47;;;20.40;99.90;;;;;;4973774;28;20463;-68
2022/06/04 09:28:23;;;;;;;6.97;6.27;;;20.40;99.90;;;;;;4974056;28;20818;-68
2022/06/04 09:30:56;;;;;;;6.60;6.13;;;20.20;99.90;;;;;;4954395;28;20484;-68
2022/06/04 09:33:40;;;;;;;5.90;5.60;;;19.90;99.90;;;;;;4954853;28;20465;-68
2022/06/04 09:36:12;;;;;;;5.50;5.07;;;19.80;99.90;;;;;;4954473;28;20579;-68
2022/06/04 09:38:41;;;;;;;6.13;5.73;;;19.80;99.90;;;;;;4953329;28;20515;-68
2022/06/04 09:41:18;;;;;;;5.50;5.20;;;19.80;99.90;;;;;;4953760;28;20520;-67
2022/06/04 09:43:45;;;;;;;5.70;5.20;;;19.70;99.90;;;;;;4954566;28;20503;-68
2022/06/04 09:46:13;;;;;;;5.10;4.80;;;19.50;99.90;;;;;;4954468;28;20460;-68
2022/06/04 09:48:50;;;;;;;4.47;4.27;;;19.50;99.90;;;;;;4954054;28;20457;-68
2022/06/04 09:51:21;;;;;;;4.73;4.40;;;19.50;99.90;;;;;;4933926;29;20507;-68
2022/06/04 09:53:52;;;;;;;5.27;4.87;;;19.40;99.90;;;;;;4934039;29;20674;-68
2022/06/04 09:56:33;;;;;;;4.90;4.50;;;19.40;99.90;;;;;;4934982;29;20489;-68
2022/06/04 09:59:10;;;;;;;5.87;5.47;;;19.40;99.90;;;;;;4934781;29;20496;-68
2022/06/04 10:01:37;;;;;;;3.90;3.73;;;19.40;99.90;;;;;;4936386;29;20503;-68
2022/06/04 10:04:13;;;;;;;4.67;4.40;;;19.40;99.90;;;;;;4953646;28;20465;-68
2022/06/04 10:06:41;;;;;;;3.40;3.30;;;19.50;99.90;;;;;;4953661;28;20471;-69
2022/06/04 10:12:05;;;;;;;3.57;3.20;;;19.80;99.90;;;;;;4953766;29;20560;-68
2022/06/04 10:14:35;;;;;;;3.33;3.13;;;19.90;99.90;;;;;;4953754;28;20468;-68
2022/06/04 10:17:03;;;;;;;4.17;3.90;;;19.90;99.90;;;;;;4956244;28;20507;-69
2022/06/04 10:19:31;;;;;;;4.20;3.93;;;19.90;99.90;;;;;;4956914;28;20836;-68
2022/06/04 10:22:11;;;;;;;4.17;3.97;;;19.90;99.90;;;;;;4952968;29;20484;-69
2022/06/04 10:24:49;;;;;;;3.00;2.90;;;19.80;99.90;;;;;;4953278;28;20472;-69
2022/06/04 10:27:32;;;;;;;5.40;3.80;;;19.90;99.90;;;;;;4953171;28;20444;-68
2022/06/04 10:30:28;;;;;;;3.67;3.57;;;19.90;99.90;;;;;;4943366;28;20784;-69
2022/06/04 10:33:05;;;;;;;2.60;2.50;;;19.80;99.90;;;;;;4905493;29;20965;-69
2022/06/04 10:35:44;;;;;;;3.60;3.40;;;19.90;99.90;;;;;;4953139;28;20457;-68
2022/06/04 10:38:26;;;;;;;3.70;3.50;;;20.00;99.90;;;;;;4953007;28;20499;-69
2022/06/04 10:41:05;;;;;;;5.23;4.93;;;20.00;99.90;;;;;;4951642;28;20845;-69
2022/06/04 10:43:59;;;;;;;4.53;4.00;;;20.00;99.90;;;;;;4953361;28;20464;-69
2022/06/04 10:46:33;;;;;;;4.47;4.07;;;19.90;99.90;;;;;;4953526;28;20469;-69
2022/06/04 10:49:17;;;;;;;3.97;3.80;;;20.00;99.90;;;;;;4952747;28;20460;-68
2022/06/04 10:51:53;;;;;;;4.57;4.17;;;20.10;99.90;;;;;;4952082;28;20484;-69
2022/06/04 10:54:28;;;;;;;4.37;4.07;;;20.30;99.90;;;;;;4951064;28;20448;-69
2022/06/04 10:57:07;;;;;;;3.70;3.50;;;20.30;99.90;;;;;;4953096;28;20492;-69
2022/06/04 10:59:40;;;;;;;3.37;3.27;;;20.40;99.90;;;;;;4946982;28;20477;-69
2022/06/04 11:02:17;;;;;;;3.57;3.27;;;20.30;99.90;;;;;;4933152;29;20493;-69
2022/06/04 11:04:50;;;;;;;3.80;3.70;;;20.20;99.90;;;;;;4933821;29;20561;-69
2022/06/04 11:07:35;;;;;;;4.10;4.00;;;20.10;99.90;;;;;;4933505;29;20494;-68
2022/06/04 11:10:07;;;;;;;3.70;3.47;;;20.30;99.90;;;;;;4941003;29;20986;-69
2022/06/04 11:12:41;;;;;;;2.77;2.67;;;20.40;99.90;;;;;;4945153;28;20493;-69
2022/06/04 11:15:16;;;;;;;2.73;2.63;;;20.40;99.90;;;;;;4952652;28;20465;-69
2022/06/04 11:17:47;;;;;;;2.37;2.37;;;20.50;99.50;;;;;;4953155;28;20514;-69
2022/06/04 11:20:18;;;;;;;3.37;3.27;;;20.70;99.40;;;;;;4946171;28;20465;-69
2022/06/04 11:22:53;;;;;;;2.77;2.67;;;20.70;99.90;;;;;;4952467;28;20472;-69
2022/06/04 11:25:27;;;;;;;2.60;2.50;;;20.70;99.90;;;;;;4952024;28;20840;-68
2022/06/04 11:27:58;;;;;;;2.67;2.60;;;20.80;99.90;;;;;;4951720;28;20478;-68
2022/06/04 11:30:38;;;;;;;2.90;2.80;;;20.80;99.50;;;;;;4951582;28;20507;-69
2022/06/04 11:33:19;;;;;;;2.50;2.40;;;21.00;98.70;;;;;;4952576;28;20469;-70
2022/06/04 11:35:54;;;;;;;3.93;3.67;;;21.10;98.60;;;;;;4952423;28;20966;-70
2022/06/04 11:38:37;;;;;;;3.10;3.00;;;21.20;99.50;;;;;;4944174;28;20492;-69
2022/06/04 11:41:17;;;;;;;3.10;2.90;;;21.30;98.70;;;;;;4936450;29;20852;-69
2022/06/04 11:44:01;;;;;;;2.80;2.70;;;21.40;98.30;;;;;;4936870;29;20488;-68
2022/06/04 11:46:34;;;;;;;2.70;2.67;;;21.40;98.70;;;;;;4954627;29;20555;-69
2022/06/04 11:49:18;;;;;;;2.80;2.80;;;21.60;97.90;;;;;;4943228;28;20981;-68
2022/06/04 11:51:59;;;;;;;2.70;2.60;;;21.70;97.20;;;;;;4935870;29;21021;-69
2022/06/04 11:54:40;;;;;;;2.47;2.37;;;21.80;96.10;;;;;;4936480;29;20901;-68
2022/06/04 11:57:16;;;;;;;2.97;2.80;;;21.70;95.30;;;;;;4943398;29;20968;-69
2022/06/04 12:00:04;;;;;;;2.67;2.60;;;21.70;95.30;;;;;;4937916;28;20469;-69
2022/06/04 12:02:37;;;;;;;3.43;3.33;;;21.90;95.30;;;;;;4946116;29;20496;-69
2022/06/04 12:05:11;;;;;;;2.30;2.30;;;21.60;95.40;;;;;;4956115;28;20817;-70
2022/06/04 12:07:41;;;;;;;2.30;2.30;;;21.40;95.50;;;;;;4955260;28;20479;-69
2022/06/04 12:10:22;;;;;;;3.10;3.00;;;21.50;94.60;;;;;;4954881;28;20460;-69
2022/06/04 12:12:55;;;;;;;3.40;2.47;;;21.60;95.30;;;;;;4955896;28;20472;-69
2022/06/04 12:15:32;;;;;;;3.33;3.23;;;21.90;95.80;;;;;;4955564;28;20464;-69
2022/06/04 12:18:04;;;;;;;2.47;2.40;;;21.90;95.10;;;;;;4952110;28;20480;-70
2022/06/04 12:26:25;;;;;;;3.53;3.43;;;21.90;95.80;;;;;;4962709;28;20452;-69
2022/06/04 12:28:53;;;;;;;3.30;3.20;;;22.00;96.60;;;;;;4963001;28;20505;-70
2022/06/04 12:31:30;;;;;;;2.93;2.90;;;22.00;97.20;;;;;;4955115;28;20488;-70
2022/06/04 12:33:57;;;;;;;3.33;3.20;;;22.00;96.70;;;;;;4954768;28;20511;-69
2022/06/04 12:36:26;;;;;;;2.70;2.60;;;22.00;96.30;;;;;;4954847;28;20464;-69
2022/06/04 12:39:00;;;;;;;2.77;2.77;;;22.00;96.20;;;;;;4954911;28;20507;-68
2022/06/04 12:41:39;;;;;;;2.60;2.50;;;21.90;95.10;;;;;;4954924;28;20555;-69
2022/06/04 12:44:07;;;;;;;2.70;2.50;;;21.90;95.60;;;;;;4954602;28;20481;-70
2022/06/04 12:46:35;;;;;;;2.50;2.50;;;21.80;93.90;;;;;;4938004;28;20524;-69
2022/06/04 12:49:13;;;;;;;3.57;2.90;;;21.90;94.30;;;;;;4936328;29;20492;-68
2022/06/04 12:51:50;;;;;;;4.00;3.53;;;22.10;94.70;;;;;;4934732;29;20484;-69
2022/06/04 12:54:38;;;;;;;5.17;3.10;;;22.00;96.10;;;;;;4935846;29;20470;-69
2022/06/04 12:57:21;;;;;;;3.43;3.33;;;22.00;95.40;;;;;;4936083;29;20564;-69
2022/06/04 12:59:50;;;;;;;2.70;2.60;;;22.00;95.60;;;;;;4935558;29;20945;-69
2022/06/04 13:02:33;;;;;;;2.80;2.70;;;22.10;94.90;;;;;;4935373;29;20516;-70
2022/06/04 13:05:13;;;;;;;2.93;2.73;;;22.20;94.80;;;;;;4939739;29;20463;-68
2022/06/04 13:07:48;;;;;;;2.30;2.30;;;22.20;93.60;;;;;;4954491;28;20822;-69
2022/06/04 13:10:25;;;;;;;3.37;3.27;;;22.20;93.30;;;;;;4953918;28;20523;-67
2022/06/04 13:12:59;;;;;;;2.70;2.60;;;22.10;93.80;;;;;;4946983;28;20465;-68
2022/06/04 13:15:34;;;;;;;3.93;3.10;;;22.00;93.30;;;;;;4953603;28;20460;-68
2022/06/04 13:18:03;;;;;;;3.27;3.17;;;22.00;94.70;;;;;;4954444;28;20575;-68
2022/06/04 13:20:37;;;;;;;2.90;2.70;;;22.00;95.90;;;;;;4954213;28;20464;-68
2022/06/04 13:23:14;;;;;;;3.30;3.20;;;22.00;96.00;;;;;;4954557;28;20946;-69
2022/06/04 13:25:48;;;;;;;3.30;3.20;;;22.00;96.60;;;;;;4944670;28;20461;-68
2022/06/04 13:28:26;;;;;;;2.93;2.83;;;22.00;95.90;;;;;;4939286;29;20468;-69
2022/06/04 13:30:53;;;;;;;3.40;3.20;;;22.00;95.40;;;;;;4955273;28;20591;-69
2022/06/04 13:33:21;;;;;;;3.00;2.90;;;22.00;95.50;;;;;;4954781;28;20472;-68
2022/06/04 13:35:52;;;;;;;3.20;3.10;;;22.20;95.40;;;;;;4953672;28;20468;-67
2022/06/04 13:38:26;;;;;;;3.33;3.13;;;22.40;94.70;;;;;;4954210;28;20499;-68
2022/06/04 13:40:59;;;;;;;2.73;2.73;;;22.30;94.70;;;;;;4953228;28;20575;-68
2022/06/04 13:43:26;;;;;;;3.07;2.97;;;22.30;94.40;;;;;;4954439;28;20465;-68
2022/06/04 13:46:04;;;;;;;2.10;2.10;;;22.30;94.30;;;;;;4943591;28;20815;-68
2022/06/04 13:48:32;;;;;;;1.90;1.90;;;22.10;93.00;;;;;;4935197;29;20594;-68
2022/06/04 13:50:59;;;;;;;2.07;1.97;;;22.10;91.70;;;;;;4934416;29;20857;-70
2022/06/04 13:53:28;;;;;;;2.43;2.43;;;22.20;90.70;;;;;;4934632;29;20469;-68
2022/06/04 13:55:58;;;;;;;2.70;2.60;;;22.30;91.50;;;;;;4944848;29;20468;-68
2022/06/04 13:58:29;;;;;;;2.67;2.57;;;22.40;92.40;;;;;;4953204;28;20492;-68
2022/06/04 14:01:00;;;;;;;2.70;2.60;;;22.50;91.60;;;;;;4952269;28;20524;-67
2022/06/04 14:03:34;;;;;;;2.70;2.70;;;22.60;91.20;;;;;;4960337;28;20464;-67
2022/06/04 14:05:59;;;;;;;2.53;2.50;;;22.70;91.20;;;;;;4962663;28;20475;-67
2022/06/04 14:08:30;;;;;;;2.50;2.50;;;22.70;91.60;;;;;;4956056;28;20843;-67
2022/06/04 14:11:07;;;;;;;2.80;2.70;;;22.70;92.90;;;;;;4953350;28;20735;-67
2022/06/04 14:13:55;;;;;;;2.80;2.77;;;22.70;92.10;;;;;;4953979;28;20511;-68
2022/06/04 14:16:47;;;;;;;2.73;2.73;;;22.60;91.00;;;;;;4939862;28;20536;-68
2022/06/04 14:19:32;;;;;;;2.20;2.20;;;22.60;90.50;;;;;;4934456;29;20493;-69
2022/06/04 14:22:05;;;;;;;2.20;2.20;;;22.70;91.20;;;;;;4934018;29;20489;-68
2022/06/04 14:24:45;;;;;;;2.37;2.37;;;22.70;91.30;;;;;;4934062;29;20472;-68
2022/06/04 14:27:27;;;;;;;2.20;2.20;;;22.80;91.00;;;;;;4941940;29;20460;-68
2022/06/04 14:30:03;;;;;;;3.17;3.07;;;23.00;88.80;;;;;;4952870;28;20997;-69
2022/06/04 14:32:38;;;;;;;2.97;2.77;;;23.00;88.00;;;;;;4952820;28;21112;-68
2022/06/04 14:35:16;;;;;;;2.37;2.37;;;22.90;86.80;;;;;;4956411;28;20882;-68
2022/06/04 14:37:45;;;;;;;2.40;2.40;;;22.90;87.50;;;;;;4934106;29;20496;-68
2022/06/04 14:40:13;;;;;;;2.00;2.00;;;23.10;84.60;;;;;;4933453;29;20556;-68
2022/06/04 14:43:19;;;;;;;2.23;2.20;;;23.20;83.80;;;;;;4934155;29;20990;-69
2022/06/04 14:45:57;;;;;;;2.20;2.20;;;23.20;84.80;;;;;;4883579;29;20462;-68
2022/06/04 14:49:09;;;;;;;10.57;2.70;;;23.00;83.70;;;;;;4893545;29;20474;-68
2022/06/04 14:52:04;;;;;;;2.40;2.40;;;23.00;84.60;;;;;;4926604;28;20811;-69
2022/06/04 14:54:32;;;;;;;2.13;2.00;;;23.10;84.20;;;;;;4952941;28;20476;-69
2022/06/04 14:57:10;;;;;;;2.90;2.57;;;22.90;84.20;;;;;;4934756;28;20465;-69
2022/06/04 15:00:06;;;;;;;2.73;2.60;;;23.00;88.00;;;;;;4933274;29;20863;-68
2022/06/04 15:02:54;;;;;;;2.30;2.30;;;23.00;86.60;;;;;;4933747;29;20827;-68
2022/06/04 15:05:31;;;;;;;2.70;2.53;;;23.30;84.50;;;;;;4933381;29;20465;-69
2022/06/04 15:08:35;;;;;;;2.70;2.67;;;23.40;83.50;;;;;;4933444;29;20879;-68
2022/06/04 15:11:19;;;;;;;2.50;2.40;;;23.70;83.20;;;;;;4933157;29;21009;-68
2022/06/04 15:13:55;;;;;;;2.83;2.83;;;23.70;84.80;;;;;;4933504;29;20465;-68
2022/06/04 15:16:36;;;;;;;2.63;2.60;;;23.90;85.50;;;;;;4946672;29;20885;-68
2022/06/04 15:19:19;;;;;;;2.57;2.57;;;23.90;84.90;;;;;;4953496;28;20524;-69
2022/06/04 15:21:58;;;;;;;2.40;2.30;;;23.80;85.40;;;;;;4949613;28;20484;-67
2022/06/04 15:24:39;;;;;;;2.70;2.70;;;23.50;86.30;;;;;;4949981;29;20503;-69
2022/06/04 15:27:20;;;;;;;2.83;2.70;;;23.20;88.70;;;;;;4946529;28;20810;-68
2022/06/04 15:35:31;;;;;;;2.53;2.53;;;23.50;82.70;;;;;;4936193;29;20566;-69
2022/06/04 15:38:06;;;;;;;2.73;2.53;;;23.40;83.80;;;;;;4954235;28;20492;-69
2022/06/04 15:41:11;;;;;;;2.80;2.70;;;23.50;83.30;;;;;;4969513;28;20463;-67
2022/06/04 15:43:39;;;;;;;2.53;2.43;;;23.70;85.60;;;;;;4971805;28;20474;-69
2022/06/04 15:46:18;;;;;;;2.70;2.60;;;23.70;83.90;;;;;;4960694;28;20980;-67
2022/06/04 15:48:49;;;;;;;2.10;2.10;;;23.50;84.40;;;;;;4952671;28;20464;-68
2022/06/04 15:57:32;;;;;;;2.27;2.27;;;23.30;84.60;;;;;;4950680;29;20845;-68
2022/06/04 16:00:04;;;;;;;6.03;3.23;;;23.30;82.90;;;;;;4951883;28;20487;-68
2022/06/04 16:02:32;;;;;;;3.20;3.10;;;23.40;85.70;;;;;;4947927;28;20493;-67
2022/06/04 16:05:03;;;;;;;3.03;2.93;;;23.50;86.90;;;;;;4951579;28;20456;-68
2022/06/04 16:07:39;;;;;;;2.73;2.67;;;23.40;85.90;;;;;;4951896;28;20460;-69
2022/06/04 16:10:26;;;;;;;2.20;2.20;;;23.30;85.80;;;;;;4955263;28;20546;-70
2022/06/04 16:13:37;;;;;;;3.30;3.20;;;23.20;86.10;;;;;;4957861;28;20460;-69
2022/06/04 16:16:17;;;;;;;3.60;3.27;;;23.20;86.00;;;;;;4939120;28;20572;-68
2022/06/04 16:19:09;;;;;;;2.70;2.60;;;23.30;85.40;;;;;;4952002;28;20507;-68
2022/06/04 16:21:45;;;;;;;2.50;2.50;;;23.20;84.50;;;;;;4958412;23;20878;-71
2022/06/04 16:24:21;;;;;;;3.37;3.27;;;23.20;85.00;;;;;;4969157;28;20479;-71
2022/06/04 16:26:50;;;;;;;2.73;2.63;;;23.30;85.90;;;;;;4973812;28;20455;-72
2022/06/04 16:29:23;;;;;;;2.37;2.27;;;23.30;87.10;;;;;;4973167;28;20476;-71
2022/06/04 16:32:06;;;;;;;2.93;2.80;;;23.20;87.30;;;;;;4960859;28;20488;-71
2022/06/04 16:34:58;;;;;;;2.37;2.30;;;23.10;87.10;;;;;;4954933;29;20468;-72
2022/06/04 16:37:27;;;;;;;3.00;2.90;;;23.00;86.10;;;;;;4954710;28;20464;-69
2022/06/04 16:39:54;;;;;;;3.10;3.00;;;23.00;86.20;;;;;;4953000;28;20495;-71
2022/06/04 16:42:27;;;;;;;3.33;3.00;;;23.10;87.20;;;;;;4954969;28;20487;-70
2022/06/04 16:44:59;;;;;;;2.90;2.70;;;22.90;86.30;;;;;;4953401;28;20465;-70
2022/06/04 16:47:39;;;;;;;3.37;3.17;;;23.00;87.90;;;;;;4955605;28;20465;-70
2022/06/04 16:50:06;;;;;;;2.83;2.73;;;23.00;87.20;;;;;;4950633;28;20480;-70
2022/06/04 16:52:36;;;;;;;2.97;2.87;;;23.00;87.70;;;;;;4954637;28;20487;-70
2022/06/04 16:55:07;;;;;;;2.70;2.70;;;23.00;87.50;;;;;;4953389;28;20821;-70
2022/06/04 16:57:34;;;;;;;3.07;2.97;;;22.90;87.90;;;;;;4953787;28;20473;-70
2022/06/04 17:00:04;;;;;;;3.20;3.03;;;22.70;88.40;;;;;;4953853;28;20484;-70
2022/06/04 17:02:54;;;;;;;3.40;2.97;;;22.50;88.40;;;;;;4954128;28;20507;-70
2022/06/04 17:05:59;;;;;;;3.07;2.87;;;22.40;88.70;;;;;;4952240;28;20472;-70
2022/06/04 17:08:45;;;;;;;6.33;5.80;;;22.20;90.10;;;;;;4947531;29;20799;-71
2022/06/04 17:11:18;;;;;;;5.43;5.03;;;22.20;90.90;;;;;;4947516;28;20877;-70
2022/06/04 17:14:00;;;;;;;3.40;3.10;;;22.30;91.50;;;;;;4946126;28;20468;-69
2022/06/04 17:16:35;;;;;;;3.00;2.97;;;22.40;91.80;;;;;;4949579;28;20995;-70
2022/06/04 17:19:36;;;;;;;3.00;2.80;;;22.50;91.30;;;;;;4950068;28;20488;-70
2022/06/04 17:22:25;;;;;;;3.63;3.53;;;22.40;91.00;;;;;;4938910;28;20978;-70
2022/06/04 17:25:07;;;;;;;3.50;3.40;;;22.30;91.50;;;;;;4951754;28;20476;-69
2022/06/04 17:27:39;;;;;;;4.27;4.07;;;22.30;91.60;;;;;;4951508;28;20477;-70
2022/06/04 17:30:15;;;;;;;3.40;3.30;;;22.30;91.60;;;;;;4950288;28;20465;-70
2022/06/04 17:32:53;;;;;;;2.47;2.47;;;22.20;90.70;;;;;;4953753;28;20503;-70
2022/06/04 17:35:28;;;;;;;2.50;2.50;;;22.00;90.30;;;;;;4953217;28;21050;-69
2022/06/04 17:38:12;;;;;;;2.83;2.80;;;21.80;90.60;;;;;;4952223;28;20481;-70